createdAt,value
2018-05-24T00:00:30.362Z,0.00
2018-05-24T00:01:30.376Z,0.00
2018-05-24T00:02:30.435Z,0.00
2018-05-24T00:03:30.431Z,0.00
2018-05-24T00:04:30.403Z,0.00
2018-05-24T00:05:30.452Z,0.00
2018-05-24T00:06:30.450Z,0.00
2018-05-24T00:07:30.505Z,0.00
2018-05-24T00:08:30.454Z,0.00
2018-05-24T00:09:30.495Z,0.00
2018-05-24T00:10:30.531Z,0.00
2018-05-24T00:11:30.498Z,0.00
2018-05-24T00:12:30.502Z,0.00
2018-05-24T00:13:30.553Z,0.00
2018-05-24T00:14:30.527Z,0.00
2018-05-24T00:15:30.584Z,0.00
2018-05-24T00:16:30.587Z,0.00
2018-05-24T00:17:30.575Z,0.00
2018-05-24T00:18:30.591Z,0.00
2018-05-24T00:19:30.613Z,0.00
2018-05-24T00:20:30.681Z,0.00
2018-05-24T00:21:30.625Z,0.00
2018-05-24T00:22:30.626Z,0.00
2018-05-24T00:23:30.640Z,0.00
2018-05-24T00:24:30.648Z,0.00
2018-05-24T00:25:30.660Z,0.00
2018-05-24T00:26:30.706Z,0.00
2018-05-24T00:27:30.698Z,0.00
2018-05-24T00:28:30.707Z,0.00
2018-05-24T00:29:30.718Z,0.00
2018-05-24T00:30:30.726Z,0.00
2018-05-24T00:31:30.755Z,0.00
2018-05-24T00:32:30.783Z,0.00
2018-05-24T00:33:30.760Z,0.00
2018-05-24T00:34:30.759Z,0.00
2018-05-24T00:35:30.770Z,0.00
2018-05-24T00:36:30.811Z,0.00
2018-05-24T00:37:30.939Z,0.00
2018-05-24T00:38:30.824Z,0.00
2018-05-24T00:39:30.842Z,0.00
2018-05-24T00:40:30.839Z,0.00
2018-05-24T00:41:30.848Z,0.00
2018-05-24T00:42:30.877Z,0.00
2018-05-24T00:43:30.926Z,0.00
2018-05-24T00:44:30.887Z,0.00
2018-05-24T00:45:30.905Z,0.00
2018-05-24T00:46:30.921Z,0.00
2018-05-24T00:47:30.924Z,0.00
2018-05-24T00:48:30.957Z,0.00
2018-05-24T00:49:31.002Z,0.00
2018-05-24T00:50:30.962Z,0.00
2018-05-24T00:51:30.980Z,0.00
2018-05-24T00:52:30.983Z,0.00
2018-05-24T00:53:31.004Z,0.00
2018-05-24T00:54:31.051Z,0.00
2018-05-24T00:55:31.065Z,0.00
2018-05-24T00:56:31.028Z,0.00
2018-05-24T00:57:31.070Z,0.00
2018-05-24T00:58:31.086Z,0.00
2018-05-24T00:59:31.209Z,0.00
2018-05-24T01:00:31.569Z,0.00
2018-05-24T01:01:31.164Z,0.00
2018-05-24T01:02:31.105Z,0.00
2018-05-24T01:03:31.126Z,0.00
2018-05-24T01:04:31.153Z,0.00
2018-05-24T01:05:31.168Z,0.00
2018-05-24T01:06:31.192Z,0.00
2018-05-24T01:07:31.175Z,0.00
2018-05-24T01:08:31.196Z,0.00
2018-05-24T01:09:31.178Z,0.00
2018-05-24T01:10:31.207Z,0.00
2018-05-24T01:11:31.267Z,0.00
2018-05-24T01:12:31.220Z,0.00
2018-05-24T01:13:31.240Z,0.00
2018-05-24T01:14:31.251Z,0.00
2018-05-24T01:15:31.274Z,0.00
2018-05-24T01:16:31.304Z,0.00
2018-05-24T01:17:31.275Z,0.00
2018-05-24T01:18:31.316Z,0.00
2018-05-24T01:19:31.321Z,0.00
2018-05-24T01:20:31.333Z,0.00
2018-05-24T01:21:31.344Z,0.00
2018-05-24T01:22:31.358Z,0.00
2018-05-24T01:23:31.411Z,0.00
2018-05-24T01:24:31.421Z,0.00
2018-05-24T01:25:31.382Z,0.00
2018-05-24T01:26:31.382Z,0.00
2018-05-24T01:27:31.391Z,0.00
2018-05-24T01:28:31.405Z,0.00
2018-05-24T01:29:31.461Z,0.00
2018-05-24T01:30:31.453Z,0.00
2018-05-24T01:31:31.456Z,0.00
2018-05-24T01:32:31.473Z,0.00
2018-05-24T01:33:31.476Z,0.00
2018-05-24T01:34:31.553Z,0.00
2018-05-24T01:35:31.496Z,0.00
2018-05-24T01:36:31.569Z,0.00
2018-05-24T01:37:31.513Z,0.00
2018-05-24T01:38:31.535Z,0.00
2018-05-24T01:39:31.559Z,0.00
2018-05-24T01:40:31.586Z,0.00
2018-05-24T01:41:31.590Z,0.00
2018-05-24T01:42:31.569Z,0.00
2018-05-24T01:43:31.590Z,0.00
2018-05-24T01:44:31.604Z,0.00
2018-05-24T01:45:31.653Z,0.00
2018-05-24T01:46:31.637Z,0.00
2018-05-24T01:47:31.634Z,0.00
2018-05-24T01:48:31.648Z,0.00
2018-05-24T01:49:31.654Z,0.00
2018-05-24T01:50:31.695Z,0.00
2018-05-24T01:51:31.733Z,0.00
2018-05-24T01:52:31.707Z,0.00
2018-05-24T01:53:31.708Z,0.00
2018-05-24T01:54:31.721Z,0.00
2018-05-24T01:55:31.742Z,0.00
2018-05-24T01:56:31.767Z,0.00
2018-05-24T01:57:31.799Z,0.00
2018-05-24T01:58:31.772Z,0.00
2018-05-24T01:59:31.773Z,0.00
2018-05-24T02:00:31.778Z,0.00
2018-05-24T02:01:31.800Z,0.00
2018-05-24T02:02:31.850Z,0.00
2018-05-24T02:03:31.867Z,0.00
2018-05-24T02:04:31.836Z,0.00
2018-05-24T02:05:31.847Z,0.00
2018-05-24T02:06:31.866Z,0.00
2018-05-24T02:07:31.869Z,0.00
2018-05-24T02:08:31.929Z,0.00
2018-05-24T02:09:31.885Z,0.00
2018-05-24T02:10:31.943Z,0.00
2018-05-24T02:11:31.905Z,0.00
2018-05-24T02:12:31.927Z,0.00
2018-05-24T02:13:31.980Z,0.00
2018-05-24T02:14:31.958Z,0.00
2018-05-24T02:15:31.964Z,0.00
2018-05-24T02:16:31.966Z,0.00
2018-05-24T02:17:31.985Z,0.00
2018-05-24T02:18:32.098Z,0.00
2018-05-24T02:19:32.050Z,0.00
2018-05-24T02:20:32.041Z,0.00
2018-05-24T02:21:32.087Z,0.00
2018-05-24T02:22:32.046Z,0.00
2018-05-24T02:23:32.048Z,0.00
2018-05-24T02:24:32.109Z,0.00
2018-05-24T02:25:32.094Z,0.00
2018-05-24T02:26:32.100Z,0.00
2018-05-24T02:27:32.113Z,0.00
2018-05-24T02:28:32.119Z,0.00
2018-05-24T02:29:32.258Z,0.00
2018-05-24T02:30:32.206Z,0.00
2018-05-24T02:31:32.162Z,0.00
2018-05-24T02:32:32.149Z,0.00
2018-05-24T02:33:32.189Z,0.00
2018-05-24T02:34:32.196Z,0.00
2018-05-24T02:35:32.241Z,0.00
2018-05-24T02:36:32.208Z,0.00
2018-05-24T02:37:32.926Z,0.00
2018-05-24T02:38:32.239Z,0.00
2018-05-24T02:39:32.245Z,0.00
2018-05-24T02:40:32.262Z,0.00
2018-05-24T02:41:32.272Z,0.00
2018-05-24T02:42:32.321Z,0.00
2018-05-24T02:43:32.284Z,0.00
2018-05-24T02:44:32.292Z,0.00
2018-05-24T02:45:32.300Z,0.00
2018-05-24T02:46:32.311Z,0.00
2018-05-24T02:47:32.379Z,0.00
2018-05-24T02:48:32.340Z,0.00
2018-05-24T02:49:32.341Z,0.00
2018-05-24T02:50:32.376Z,5.63
2018-05-24T02:51:32.363Z,5.63
2018-05-24T02:52:32.423Z,5.63
2018-05-24T02:53:32.418Z,5.63
2018-05-24T02:54:32.408Z,5.63
2018-05-24T02:55:32.446Z,5.63
2018-05-24T02:56:32.437Z,5.63
2018-05-24T02:57:32.456Z,5.63
2018-05-24T02:58:32.547Z,5.63
2018-05-24T02:59:32.479Z,11.25
2018-05-24T03:00:32.464Z,11.25
2018-05-24T03:01:32.596Z,11.25
2018-05-24T03:02:32.526Z,11.25
2018-05-24T03:03:32.570Z,11.25
2018-05-24T03:04:32.561Z,11.25
2018-05-24T03:05:32.584Z,11.25
2018-05-24T03:06:32.569Z,16.88
2018-05-24T03:07:32.631Z,16.88
2018-05-24T03:08:32.580Z,16.88
2018-05-24T03:09:32.598Z,16.88
2018-05-24T03:10:32.705Z,16.88
2018-05-24T03:11:32.627Z,22.50
2018-05-24T03:12:32.754Z,22.50
2018-05-24T03:13:32.611Z,22.50
2018-05-24T03:14:32.655Z,22.50
2018-05-24T03:15:32.666Z,22.50
2018-05-24T03:16:32.659Z,28.13
2018-05-24T03:17:32.705Z,28.13
2018-05-24T03:18:32.728Z,28.13
2018-05-24T03:19:32.697Z,28.13
2018-05-24T03:20:32.728Z,33.75
2018-05-24T03:21:32.722Z,33.75
2018-05-24T03:22:32.720Z,39.38
2018-05-24T03:23:32.783Z,45.00
2018-05-24T03:24:32.745Z,56.25
2018-05-24T03:25:32.868Z,61.88
2018-05-24T03:26:32.783Z,73.13
2018-05-24T03:27:32.789Z,73.13
2018-05-24T03:28:32.785Z,78.75
2018-05-24T03:29:32.803Z,78.75
2018-05-24T03:30:32.840Z,78.75
2018-05-24T03:31:32.852Z,84.38
2018-05-24T03:32:32.841Z,84.38
2018-05-24T03:33:32.893Z,78.75
2018-05-24T03:34:32.922Z,78.75
2018-05-24T03:35:32.865Z,78.75
2018-05-24T03:36:32.886Z,84.38
2018-05-24T03:37:32.886Z,90.00
2018-05-24T03:38:33.123Z,95.63
2018-05-24T03:39:32.930Z,95.63
2018-05-24T03:40:32.930Z,101.25
2018-05-24T03:41:32.940Z,106.88
2018-05-24T03:42:33.015Z,106.88
2018-05-24T03:43:32.971Z,118.13
2018-05-24T03:44:32.979Z,123.75
2018-05-24T03:45:32.995Z,129.38
2018-05-24T03:46:33.081Z,135.00
2018-05-24T03:47:33.060Z,135.00
2018-05-24T03:48:33.026Z,140.63
2018-05-24T03:49:33.046Z,146.25
2018-05-24T03:50:33.069Z,151.88
2018-05-24T03:51:33.066Z,157.50
2018-05-24T03:52:33.087Z,157.50
2018-05-24T03:53:33.156Z,168.75
2018-05-24T03:54:33.150Z,174.38
2018-05-24T03:55:33.119Z,174.38
2018-05-24T03:56:33.120Z,180.00
2018-05-24T03:57:33.118Z,191.25
2018-05-24T03:58:33.138Z,196.88
2018-05-24T03:59:33.185Z,208.13
2018-05-24T04:00:33.176Z,213.75
2018-05-24T04:01:33.182Z,225.00
2018-05-24T04:02:33.205Z,230.63
2018-05-24T04:03:33.201Z,241.88
2018-05-24T04:04:33.286Z,247.50
2018-05-24T04:05:33.228Z,258.75
2018-05-24T04:06:33.233Z,275.63
2018-05-24T04:07:33.242Z,281.25
2018-05-24T04:08:33.254Z,292.50
2018-05-24T04:09:33.309Z,320.63
2018-05-24T04:10:33.310Z,320.63
2018-05-24T04:11:33.310Z,326.25
2018-05-24T04:12:33.319Z,331.88
2018-05-24T04:13:33.453Z,337.50
2018-05-24T04:14:33.334Z,348.75
2018-05-24T04:15:33.360Z,354.38
2018-05-24T04:16:33.393Z,354.38
2018-05-24T04:17:33.363Z,360.00
2018-05-24T04:18:33.368Z,376.88
2018-05-24T04:19:33.413Z,399.38
2018-05-24T04:20:33.418Z,399.38
2018-05-24T04:21:33.445Z,393.75
2018-05-24T04:22:33.480Z,343.13
2018-05-24T04:23:33.437Z,348.75
2018-05-24T04:24:33.464Z,382.50
2018-05-24T04:25:33.514Z,393.75
2018-05-24T04:26:33.540Z,416.25
2018-05-24T04:27:33.487Z,399.38
2018-05-24T04:28:33.500Z,393.75
2018-05-24T04:29:33.536Z,399.38
2018-05-24T04:30:33.549Z,399.38
2018-05-24T04:31:33.566Z,416.25
2018-05-24T04:32:33.603Z,399.38
2018-05-24T04:33:33.566Z,365.63
2018-05-24T04:34:33.578Z,343.13
2018-05-24T04:35:33.590Z,315.00
2018-05-24T04:36:33.631Z,275.63
2018-05-24T04:37:33.665Z,236.25
2018-05-24T04:38:33.648Z,213.75
2018-05-24T04:39:33.671Z,230.63
2018-05-24T04:40:33.647Z,230.63
2018-05-24T04:41:33.666Z,241.88
2018-05-24T04:42:33.720Z,241.88
2018-05-24T04:43:33.717Z,258.75
2018-05-24T04:44:33.733Z,275.63
2018-05-24T04:45:33.795Z,275.63
2018-05-24T04:46:33.722Z,275.63
2018-05-24T04:47:33.769Z,292.50
2018-05-24T04:48:33.807Z,309.38
2018-05-24T04:49:33.768Z,309.38
2018-05-24T04:50:33.789Z,343.13
2018-05-24T04:51:33.805Z,382.50
2018-05-24T04:52:33.833Z,421.88
2018-05-24T04:53:33.840Z,427.50
2018-05-24T04:54:33.828Z,399.38
2018-05-24T04:55:33.889Z,433.13
2018-05-24T04:56:33.853Z,450.00
2018-05-24T04:57:33.866Z,500.63
2018-05-24T04:58:33.889Z,556.88
2018-05-24T04:59:33.917Z,551.25
2018-05-24T05:00:33.934Z,540.00
2018-05-24T05:01:34.006Z,500.63
2018-05-24T05:02:33.972Z,540.00
2018-05-24T05:03:33.958Z,495.00
2018-05-24T05:04:33.961Z,489.38
2018-05-24T05:05:33.975Z,556.88
2018-05-24T05:06:33.979Z,545.63
2018-05-24T05:07:34.027Z,585.00
2018-05-24T05:08:34.007Z,540.00
2018-05-24T05:09:34.038Z,551.25
2018-05-24T05:10:34.075Z,528.75
2018-05-24T05:11:34.065Z,573.75
2018-05-24T05:12:34.098Z,613.13
2018-05-24T05:13:34.121Z,691.88
2018-05-24T05:14:34.194Z,663.75
2018-05-24T05:15:34.099Z,697.50
2018-05-24T05:16:34.136Z,731.25
2018-05-24T05:17:34.135Z,686.25
2018-05-24T05:18:34.166Z,658.13
2018-05-24T05:19:34.244Z,630.00
2018-05-24T05:20:34.217Z,675.00
2018-05-24T05:21:34.186Z,663.75
2018-05-24T05:22:34.196Z,646.88
2018-05-24T05:23:34.227Z,478.13
2018-05-24T05:24:34.280Z,410.63
2018-05-24T05:25:34.311Z,382.50
2018-05-24T05:26:34.264Z,360.00
2018-05-24T05:27:34.285Z,365.63
2018-05-24T05:28:34.281Z,427.50
2018-05-24T05:29:34.325Z,472.50
2018-05-24T05:30:34.363Z,556.88
2018-05-24T05:31:34.369Z,528.75
2018-05-24T05:32:34.359Z,585.00
2018-05-24T05:33:34.363Z,360.00
2018-05-24T05:34:34.376Z,461.25
2018-05-24T05:35:34.378Z,450.00
2018-05-24T05:36:34.426Z,444.38
2018-05-24T05:37:34.476Z,438.75
2018-05-24T05:38:34.434Z,438.75
2018-05-24T05:39:34.442Z,455.63
2018-05-24T05:40:34.478Z,270.00
2018-05-24T05:41:34.522Z,298.13
2018-05-24T05:42:34.483Z,225.00
2018-05-24T05:43:34.503Z,202.50
2018-05-24T05:44:34.528Z,185.63
2018-05-24T05:45:34.572Z,174.38
2018-05-24T05:46:34.589Z,174.38
2018-05-24T05:47:34.573Z,180.00
2018-05-24T05:48:34.630Z,185.63
2018-05-24T05:49:34.596Z,185.63
2018-05-24T05:50:34.607Z,174.38
2018-05-24T05:51:34.656Z,174.38
2018-05-24T05:52:34.650Z,180.00
2018-05-24T05:53:34.653Z,185.63
2018-05-24T05:54:34.672Z,185.63
2018-05-24T05:55:34.690Z,174.38
2018-05-24T05:56:34.713Z,174.38
2018-05-24T05:57:34.730Z,174.38
2018-05-24T05:58:34.707Z,168.75
2018-05-24T05:59:34.717Z,168.75
2018-05-24T06:00:34.800Z,163.13
2018-05-24T06:01:34.864Z,168.75
2018-05-24T06:02:34.795Z,163.13
2018-05-24T06:03:34.799Z,157.50
2018-05-24T06:04:34.795Z,157.50
2018-05-24T06:05:34.829Z,157.50
2018-05-24T06:06:34.883Z,157.50
2018-05-24T06:07:34.843Z,157.50
2018-05-24T06:08:34.857Z,157.50
2018-05-24T06:09:34.906Z,151.88
2018-05-24T06:10:34.880Z,163.13
2018-05-24T06:11:34.941Z,157.50
2018-05-24T06:12:34.927Z,157.50
2018-05-24T06:13:34.905Z,157.50
2018-05-24T06:14:34.958Z,163.13
2018-05-24T06:15:34.969Z,174.38
2018-05-24T06:16:34.972Z,180.00
2018-05-24T06:17:35.047Z,185.63
2018-05-24T06:18:34.987Z,191.25
2018-05-24T06:19:34.990Z,191.25
2018-05-24T06:20:35.008Z,191.25
2018-05-24T06:21:35.036Z,185.63
2018-05-24T06:22:35.025Z,168.75
2018-05-24T06:23:35.082Z,157.50
2018-05-24T06:24:35.085Z,163.13
2018-05-24T06:25:35.072Z,168.75
2018-05-24T06:26:35.112Z,163.13
2018-05-24T06:27:35.100Z,151.88
2018-05-24T06:28:35.225Z,151.88
2018-05-24T06:29:35.112Z,151.88
2018-05-24T06:30:35.131Z,157.50
2018-05-24T06:31:35.144Z,157.50
2018-05-24T06:32:35.157Z,157.50
2018-05-24T06:33:35.218Z,157.50
2018-05-24T06:34:35.213Z,157.50
2018-05-24T06:35:35.222Z,157.50
2018-05-24T06:36:35.223Z,168.75
2018-05-24T06:37:35.234Z,168.75
2018-05-24T06:38:35.239Z,168.75
2018-05-24T06:39:35.285Z,163.13
2018-05-24T06:40:35.308Z,157.50
2018-05-24T06:41:35.297Z,163.13
2018-05-24T06:42:35.271Z,163.13
2018-05-24T06:43:35.376Z,163.13
2018-05-24T06:44:35.329Z,163.13
2018-05-24T06:45:35.383Z,163.13
2018-05-24T06:46:35.360Z,163.13
2018-05-24T06:47:35.338Z,157.50
2018-05-24T06:48:35.361Z,157.50
2018-05-24T06:49:35.360Z,151.88
2018-05-24T06:50:35.436Z,146.25
2018-05-24T06:51:35.415Z,146.25
2018-05-24T06:52:35.401Z,151.88
2018-05-24T06:53:35.431Z,146.25
2018-05-24T06:54:35.468Z,146.25
2018-05-24T06:55:35.490Z,151.88
2018-05-24T06:56:35.457Z,157.50
2018-05-24T06:57:35.477Z,157.50
2018-05-24T06:58:35.519Z,168.75
2018-05-24T06:59:35.494Z,168.75
2018-05-24T07:00:35.505Z,168.75
2018-05-24T07:01:35.560Z,163.13
2018-05-24T07:02:35.537Z,157.50
2018-05-24T07:03:35.562Z,163.13
2018-05-24T07:04:35.851Z,174.38
2018-05-24T07:05:35.599Z,180.00
2018-05-24T07:06:35.592Z,185.63
2018-05-24T07:07:35.601Z,191.25
2018-05-24T07:08:35.596Z,191.25
2018-05-24T07:09:35.697Z,191.25
2018-05-24T07:10:35.652Z,191.25
2018-05-24T07:11:35.653Z,196.88
2018-05-24T07:12:35.674Z,191.25
2018-05-24T07:13:35.669Z,196.88
2018-05-24T07:14:35.736Z,191.25
2018-05-24T07:15:35.696Z,191.25
2018-05-24T07:16:35.714Z,185.63
2018-05-24T07:17:35.762Z,185.63
2018-05-24T07:18:35.834Z,180.00
2018-05-24T07:19:35.742Z,185.63
2018-05-24T07:20:35.761Z,185.63
2018-05-24T07:21:35.789Z,185.63
2018-05-24T07:22:35.834Z,185.63
2018-05-24T07:23:35.815Z,191.25
2018-05-24T07:24:35.834Z,185.63
2018-05-24T07:25:35.817Z,185.63
2018-05-24T07:26:35.830Z,180.00
2018-05-24T07:27:35.889Z,180.00
2018-05-24T07:28:35.887Z,180.00
2018-05-24T07:29:35.883Z,185.63
2018-05-24T07:30:35.901Z,180.00
2018-05-24T07:31:35.933Z,185.63
2018-05-24T07:32:35.918Z,185.63
2018-05-24T07:33:35.949Z,174.38
2018-05-24T07:34:35.972Z,174.38
2018-05-24T07:35:35.956Z,174.38
2018-05-24T07:36:35.999Z,180.00
2018-05-24T07:37:35.986Z,185.63
2018-05-24T07:38:36.019Z,185.63
2018-05-24T07:39:36.114Z,185.63
2018-05-24T07:40:36.033Z,185.63
2018-05-24T07:41:36.033Z,180.00
2018-05-24T07:42:36.062Z,180.00
2018-05-24T07:43:36.066Z,174.38
2018-05-24T07:44:36.095Z,168.75
2018-05-24T07:45:36.082Z,163.13
2018-05-24T07:46:36.094Z,163.13
2018-05-24T07:47:36.120Z,163.13
2018-05-24T07:48:36.138Z,163.13
2018-05-24T07:49:36.196Z,163.13
2018-05-24T07:50:36.184Z,168.75
2018-05-24T07:51:36.154Z,163.13
2018-05-24T07:52:36.169Z,157.50
2018-05-24T07:53:36.201Z,163.13
2018-05-24T07:54:36.253Z,168.75
2018-05-24T07:55:36.225Z,168.75
2018-05-24T07:56:36.234Z,163.13
2018-05-24T07:57:36.238Z,163.13
2018-05-24T07:58:36.257Z,163.13
2018-05-24T07:59:36.301Z,157.50
2018-05-24T08:00:36.272Z,157.50
2018-05-24T08:01:36.366Z,157.50
2018-05-24T08:02:36.296Z,157.50
2018-05-24T08:03:36.312Z,151.88
2018-05-24T08:04:36.371Z,157.50
2018-05-24T08:05:36.380Z,157.50
2018-05-24T08:06:36.362Z,157.50
2018-05-24T08:07:36.410Z,157.50
2018-05-24T08:08:36.475Z,157.50
2018-05-24T08:09:36.410Z,151.88
2018-05-24T08:10:36.436Z,151.88
2018-05-24T08:11:36.442Z,151.88
2018-05-24T08:12:36.432Z,157.50
2018-05-24T08:13:36.488Z,151.88
2018-05-24T08:14:36.502Z,151.88
2018-05-24T08:15:36.514Z,146.25
2018-05-24T08:16:36.492Z,146.25
2018-05-24T08:17:36.532Z,146.25
2018-05-24T08:18:36.506Z,146.25
2018-05-24T08:19:36.517Z,146.25
2018-05-24T08:20:36.550Z,146.25
2018-05-24T08:21:36.580Z,146.25
2018-05-24T08:22:36.680Z,146.25
2018-05-24T08:23:36.620Z,146.25
2018-05-24T08:24:36.605Z,151.88
2018-05-24T08:25:36.617Z,146.25
2018-05-24T08:26:36.633Z,140.63
2018-05-24T08:27:36.650Z,140.63
2018-05-24T08:28:36.686Z,140.63
2018-05-24T08:29:36.655Z,140.63
2018-05-24T08:30:36.703Z,140.63
2018-05-24T08:31:36.684Z,140.63
2018-05-24T08:32:36.728Z,140.63
2018-05-24T08:33:36.754Z,146.25
2018-05-24T08:34:36.733Z,146.25
2018-05-24T08:35:36.760Z,140.63
2018-05-24T08:36:36.764Z,146.25
2018-05-24T08:37:36.761Z,140.63
2018-05-24T08:38:36.817Z,146.25
2018-05-24T08:39:36.798Z,146.25
2018-05-24T08:40:36.833Z,146.25
2018-05-24T08:41:36.903Z,146.25
2018-05-24T08:42:36.856Z,146.25
2018-05-24T08:43:36.892Z,140.63
2018-05-24T08:44:36.904Z,140.63
2018-05-24T08:45:36.885Z,140.63
2018-05-24T08:46:36.903Z,140.63
2018-05-24T08:47:36.937Z,135.00
2018-05-24T08:48:36.922Z,135.00
2018-05-24T08:49:36.965Z,129.38
2018-05-24T08:50:36.951Z,129.38
2018-05-24T08:51:36.958Z,129.38
2018-05-24T08:52:37.001Z,123.75
2018-05-24T08:53:36.977Z,123.75
2018-05-24T08:54:37.020Z,123.75
2018-05-24T08:55:37.009Z,123.75
2018-05-24T08:56:37.040Z,118.13
2018-05-24T08:57:37.040Z,118.13
2018-05-24T08:58:37.046Z,118.13
2018-05-24T08:59:37.099Z,112.50
2018-05-24T09:00:37.082Z,112.50
2018-05-24T09:01:37.110Z,112.50
2018-05-24T09:02:37.116Z,112.50
2018-05-24T09:03:37.150Z,112.50
2018-05-24T09:04:37.140Z,106.88
2018-05-24T09:05:37.198Z,106.88
2018-05-24T09:06:37.162Z,106.88
2018-05-24T09:07:37.194Z,106.88
2018-05-24T09:08:37.207Z,106.88
2018-05-24T09:09:37.194Z,106.88
2018-05-24T09:10:37.236Z,106.88
2018-05-24T09:11:37.287Z,101.25
2018-05-24T09:12:37.234Z,106.88
2018-05-24T09:13:37.258Z,101.25
2018-05-24T09:14:37.263Z,101.25
2018-05-24T09:15:37.325Z,101.25
2018-05-24T09:16:37.341Z,101.25
2018-05-24T09:17:37.304Z,106.88
2018-05-24T09:18:37.354Z,106.88
2018-05-24T09:19:37.351Z,106.88
2018-05-24T09:20:37.357Z,101.25
2018-05-24T09:21:37.415Z,101.25
2018-05-24T09:22:37.419Z,101.25
2018-05-24T09:23:37.380Z,90.00
2018-05-24T09:24:37.402Z,95.63
2018-05-24T09:25:37.425Z,101.25
2018-05-24T09:26:37.465Z,101.25
2018-05-24T09:27:37.506Z,101.25
2018-05-24T09:28:37.463Z,95.63
2018-05-24T09:29:37.509Z,95.63
2018-05-24T09:30:37.484Z,90.00
2018-05-24T09:31:37.514Z,95.63
2018-05-24T09:32:37.553Z,95.63
2018-05-24T09:33:37.539Z,95.63
2018-05-24T09:34:37.544Z,95.63
2018-05-24T09:35:37.549Z,90.00
2018-05-24T09:36:37.577Z,90.00
2018-05-24T09:37:37.621Z,90.00
2018-05-24T09:38:37.600Z,95.63
2018-05-24T09:39:37.607Z,95.63
2018-05-24T09:40:37.634Z,95.63
2018-05-24T09:41:37.645Z,90.00
2018-05-24T09:42:37.703Z,90.00
2018-05-24T09:43:37.653Z,95.63
2018-05-24T09:44:37.709Z,95.63
2018-05-24T09:45:37.686Z,95.63
2018-05-24T09:46:37.789Z,95.63
2018-05-24T09:47:37.751Z,90.00
2018-05-24T09:48:37.736Z,95.63
2018-05-24T09:49:37.754Z,90.00
2018-05-24T09:50:37.763Z,95.63
2018-05-24T09:51:37.783Z,95.63
2018-05-24T09:52:37.825Z,95.63
2018-05-24T09:53:37.839Z,90.00
2018-05-24T09:54:37.808Z,90.00
2018-05-24T09:55:37.862Z,90.00
2018-05-24T09:56:37.883Z,90.00
2018-05-24T09:57:37.853Z,90.00
2018-05-24T09:58:37.883Z,90.00
2018-05-24T09:59:37.900Z,95.63
2018-05-24T10:00:37.951Z,90.00
2018-05-24T10:01:37.903Z,95.63
2018-05-24T10:02:37.917Z,95.63
2018-05-24T10:03:37.951Z,95.63
2018-05-24T10:04:38.095Z,95.63
2018-05-24T10:05:38.014Z,95.63
2018-05-24T10:06:38.041Z,95.63
2018-05-24T10:07:37.992Z,101.25
2018-05-24T10:08:38.053Z,95.63
2018-05-24T10:09:38.011Z,95.63
2018-05-24T10:10:38.087Z,95.63
2018-05-24T10:11:38.054Z,95.63
2018-05-24T10:12:38.082Z,95.63
2018-05-24T10:13:38.111Z,101.25
2018-05-24T10:14:38.098Z,95.63
2018-05-24T10:15:38.112Z,95.63
2018-05-24T10:16:38.112Z,101.25
2018-05-24T10:17:38.160Z,101.25
2018-05-24T10:18:38.177Z,101.25
2018-05-24T10:19:38.193Z,101.25
2018-05-24T10:20:38.183Z,101.25
2018-05-24T10:21:38.225Z,101.25
2018-05-24T10:22:38.222Z,101.25
2018-05-24T10:23:38.241Z,90.00
2018-05-24T10:24:38.279Z,101.25
2018-05-24T10:25:38.304Z,106.88
2018-05-24T10:26:38.285Z,95.63
2018-05-24T10:27:38.289Z,112.50
2018-05-24T10:28:38.419Z,118.13
2018-05-24T10:29:38.297Z,112.50
2018-05-24T10:30:38.355Z,106.88
2018-05-24T10:31:38.367Z,106.88
2018-05-24T10:32:38.376Z,112.50
2018-05-24T10:33:38.432Z,112.50
2018-05-24T10:34:38.370Z,112.50
2018-05-24T10:35:38.411Z,112.50
2018-05-24T10:36:38.416Z,112.50
2018-05-24T10:37:38.408Z,118.13
2018-05-24T10:38:38.448Z,118.13
2018-05-24T10:39:38.589Z,118.13
2018-05-24T10:40:38.462Z,118.13
2018-05-24T10:41:38.502Z,112.50
2018-05-24T10:42:38.482Z,118.13
2018-05-24T10:43:38.509Z,106.88
2018-05-24T10:44:38.552Z,123.75
2018-05-24T10:45:38.577Z,123.75
2018-05-24T10:46:38.534Z,112.50
2018-05-24T10:47:38.563Z,123.75
2018-05-24T10:48:38.576Z,123.75
2018-05-24T10:49:38.586Z,118.13
2018-05-24T10:50:38.625Z,123.75
2018-05-24T10:51:38.626Z,123.75
2018-05-24T10:52:38.634Z,118.13
2018-05-24T10:53:38.637Z,112.50
2018-05-24T10:54:38.698Z,118.13
2018-05-24T10:55:38.705Z,112.50
2018-05-24T10:56:38.716Z,118.13
2018-05-24T10:57:38.710Z,123.75
2018-05-24T10:58:38.717Z,118.13
2018-05-24T10:59:38.744Z,118.13
2018-05-24T11:00:38.794Z,118.13
2018-05-24T11:01:38.761Z,123.75
2018-05-24T11:02:38.796Z,118.13
2018-05-24T11:03:38.858Z,123.75
2018-05-24T11:04:38.799Z,129.38
2018-05-24T11:05:38.876Z,123.75
2018-05-24T11:06:38.842Z,129.38
2018-05-24T11:07:38.867Z,129.38
2018-05-24T11:08:38.889Z,129.38
2018-05-24T11:09:38.878Z,123.75
2018-05-24T11:10:38.887Z,112.50
2018-05-24T11:11:39.041Z,123.75
2018-05-24T11:12:38.948Z,123.75
2018-05-24T11:13:38.963Z,123.75
2018-05-24T11:14:38.950Z,123.75
2018-05-24T11:15:38.967Z,118.13
2018-05-24T11:16:38.978Z,123.75
2018-05-24T11:17:39.013Z,123.75
2018-05-24T11:18:39.064Z,129.38
2018-05-24T11:19:39.032Z,123.75
2018-05-24T11:20:39.036Z,112.50
2018-05-24T11:21:39.044Z,129.38
2018-05-24T11:22:39.114Z,129.38
2018-05-24T11:23:39.105Z,129.38
2018-05-24T11:24:39.104Z,135.00
2018-05-24T11:25:39.117Z,129.38
2018-05-24T11:26:39.143Z,123.75
2018-05-24T11:27:39.167Z,118.13
2018-05-24T11:28:39.161Z,118.13
2018-05-24T11:29:39.249Z,118.13
2018-05-24T11:30:39.201Z,118.13
2018-05-24T11:31:39.300Z,118.13
2018-05-24T11:32:39.221Z,118.13
2018-05-24T11:33:39.237Z,118.13
2018-05-24T11:34:39.281Z,118.13
2018-05-24T11:35:39.279Z,118.13
2018-05-24T11:36:39.272Z,112.50
2018-05-24T11:37:39.349Z,112.50
2018-05-24T11:38:39.308Z,112.50
2018-05-24T11:39:39.353Z,101.25
2018-05-24T11:40:39.328Z,112.50
2018-05-24T11:41:39.347Z,106.88
2018-05-24T11:42:39.420Z,112.50
2018-05-24T11:43:39.374Z,112.50
2018-05-24T11:44:39.439Z,118.13
2018-05-24T11:45:39.417Z,118.13
2018-05-24T11:46:39.424Z,118.13
2018-05-24T11:47:39.451Z,118.13
2018-05-24T11:48:39.506Z,123.75
2018-05-24T11:49:39.504Z,112.50
2018-05-24T11:50:39.528Z,106.88
2018-05-24T11:51:39.552Z,106.88
2018-05-24T11:52:39.535Z,101.25
2018-05-24T11:53:39.519Z,101.25
2018-05-24T11:54:39.573Z,95.63
2018-05-24T11:55:39.574Z,101.25
2018-05-24T11:56:39.591Z,95.63
2018-05-24T11:57:39.705Z,95.63
2018-05-24T11:58:39.605Z,95.63
2018-05-24T11:59:39.661Z,90.00
2018-05-24T12:00:39.683Z,90.00
2018-05-24T12:01:39.681Z,90.00
2018-05-24T12:02:39.691Z,90.00
2018-05-24T12:03:39.693Z,90.00
2018-05-24T12:04:39.706Z,84.38
2018-05-24T12:05:39.707Z,84.38
2018-05-24T12:06:39.716Z,84.38
2018-05-24T12:07:39.805Z,84.38
2018-05-24T12:08:39.754Z,84.38
2018-05-24T12:09:39.780Z,84.38
2018-05-24T12:10:39.790Z,84.38
2018-05-24T12:11:39.791Z,84.38
2018-05-24T12:12:39.861Z,84.38
2018-05-24T12:13:39.872Z,84.38
2018-05-24T12:14:39.877Z,78.75
2018-05-24T12:15:39.871Z,84.38
2018-05-24T12:16:39.893Z,84.38
2018-05-24T12:17:39.891Z,84.38
2018-05-24T12:18:39.956Z,84.38
2018-05-24T12:19:39.916Z,84.38
2018-05-24T12:20:39.933Z,84.38
2018-05-24T12:21:39.961Z,84.38
2018-05-24T12:22:39.987Z,84.38
2018-05-24T12:23:40.105Z,84.38
2018-05-24T12:24:39.987Z,84.38
2018-05-24T12:25:40.008Z,84.38
2018-05-24T12:26:40.017Z,84.38
2018-05-24T12:27:40.046Z,84.38
2018-05-24T12:28:40.086Z,84.38
2018-05-24T12:29:40.089Z,84.38
2018-05-24T12:30:40.088Z,84.38
2018-05-24T12:31:40.104Z,84.38
2018-05-24T12:32:40.152Z,78.75
2018-05-24T12:33:40.192Z,78.75
2018-05-24T12:34:40.162Z,84.38
2018-05-24T12:35:40.177Z,78.75
2018-05-24T12:36:40.182Z,84.38
2018-05-24T12:37:40.259Z,84.38
2018-05-24T12:38:40.194Z,84.38
2018-05-24T12:39:40.210Z,84.38
2018-05-24T12:40:40.273Z,84.38
2018-05-24T12:41:40.300Z,84.38
2018-05-24T12:42:40.275Z,84.38
2018-05-24T12:43:40.282Z,84.38
2018-05-24T12:44:40.325Z,84.38